Terminal Aerodrome Forecast
Issued by NWS Kansas City/Pleasant Hill, MO

Home | Current Version | Previous Version | Text Only | Print | Product List | Glossary On
Versions: 1 2 3 4 5 6 7 8 9 10 11 12 13 14 15
000
FTUS43 KEAX 010100 AAA
TAFMCI
TAF AMD
KMCI 010140Z 0102/0124 15005KT P6SM SCT020 OVC050
      TEMPO 0103/0106 BKN025
     FM010600 18004KT 3SM -SN OVC020
     FM011400 28005KT 2SM -SN OVC015
     FM011800 32006KT P6SM OVC050=

USA.gov is the U.S. government's official web portal to all federal, state and local government web resources and services.